sensor_id;sensor_type;location;lat;lon;timestamp;P1;durP1;ratioP1;P2;durP2;ratioP2
15194;SDS011;7698;42.478;23.756;2023-02-26T00:01:22;14.18;;;10.43;;
15194;SDS011;7698;42.478;23.756;2023-02-26T00:04:03;18.73;;;13.82;;
15194;SDS011;7698;42.478;23.756;2023-02-26T00:06:30;15.18;;;11.48;;
15194;SDS011;7698;42.478;23.756;2023-02-26T00:08:57;16.35;;;13.52;;
15194;SDS011;7698;42.478;23.756;2023-02-26T00:11:24;13.65;;;9.52;;
15194;SDS011;7698;42.478;23.756;2023-02-26T00:13:51;14.48;;;12.07;;
15194;SDS011;7698;42.478;23.756;2023-02-26T00:16:22;13.40;;;11.40;;
15194;SDS011;7698;42.478;23.756;2023-02-26T00:18:51;13.85;;;12.10;;
15194;SDS011;7698;42.478;23.756;2023-02-26T00:21:20;15.63;;;11.40;;
15194;SDS011;7698;42.478;23.756;2023-02-26T00:23:47;14.98;;;10.77;;
15194;SDS011;7698;42.478;23.756;2023-02-26T00:26:13;10.77;;;9.23;;
15194;SDS011;7698;42.478;23.756;2023-02-26T00:28:40;10.65;;;9.25;;
15194;SDS011;7698;42.478;23.756;2023-02-26T00:31:07;11.68;;;9.60;;
15194;SDS011;7698;42.478;23.756;2023-02-26T00:33:34;14.15;;;11.13;;
15194;SDS011;7698;42.478;23.756;2023-02-26T00:36:02;13.73;;;11.75;;
15194;SDS011;7698;42.478;23.756;2023-02-26T00:38:35;20.92;;;13.90;;
15194;SDS011;7698;42.478;23.756;2023-02-26T00:41:03;17.05;;;12.05;;
15194;SDS011;7698;42.478;23.756;2023-02-26T00:43:29;15.80;;;11.40;;
15194;SDS011;7698;42.478;23.756;2023-02-26T00:45:58;17.75;;;12.43;;
15194;SDS011;7698;42.478;23.756;2023-02-26T00:48:31;14.05;;;10.70;;
15194;SDS011;7698;42.478;23.756;2023-02-26T00:51:03;14.50;;;12.25;;
15194;SDS011;7698;42.478;23.756;2023-02-26T00:53:33;15.15;;;11.80;;
15194;SDS011;7698;42.478;23.756;2023-02-26T00:56:02;13.52;;;11.43;;
15194;SDS011;7698;42.478;23.756;2023-02-26T00:58:29;16.08;;;14.38;;
15194;SDS011;7698;42.478;23.756;2023-02-26T01:00:55;16.25;;;14.55;;
15194;SDS011;7698;42.478;23.756;2023-02-26T01:03:22;17.10;;;13.88;;
15194;SDS011;7698;42.478;23.756;2023-02-26T01:05:49;16.15;;;12.80;;
15194;SDS011;7698;42.478;23.756;2023-02-26T01:08:17;14.15;;;12.63;;
15194;SDS011;7698;42.478;23.756;2023-02-26T01:10:44;15.18;;;11.68;;
15194;SDS011;7698;42.478;23.756;2023-02-26T01:13:13;17.73;;;12.68;;
15194;SDS011;7698;42.478;23.756;2023-02-26T01:15:40;15.48;;;11.02;;
15194;SDS011;7698;42.478;23.756;2023-02-26T01:18:11;16.73;;;11.82;;
15194;SDS011;7698;42.478;23.756;2023-02-26T01:20:39;13.00;;;11.48;;
15194;SDS011;7698;42.478;23.756;2023-02-26T01:23:10;13.40;;;11.23;;
15194;SDS011;7698;42.478;23.756;2023-02-26T01:25:40;17.73;;;13.00;;
15194;SDS011;7698;42.478;23.756;2023-02-26T01:28:08;13.70;;;11.82;;
15194;SDS011;7698;42.478;23.756;2023-02-26T01:30:36;20.42;;;18.30;;
15194;SDS011;7698;42.478;23.756;2023-02-26T01:33:06;18.95;;;16.95;;
15194;SDS011;7698;42.478;23.756;2023-02-26T01:35:39;19.38;;;17.10;;
15194;SDS011;7698;42.478;23.756;2023-02-26T01:38:09;19.88;;;17.35;;
15194;SDS011;7698;42.478;23.756;2023-02-26T01:40:51;22.88;;;20.17;;
15194;SDS011;7698;42.478;23.756;2023-02-26T01:43:24;20.40;;;16.00;;
15194;SDS011;7698;42.478;23.756;2023-02-26T01:45:56;19.95;;;15.55;;
15194;SDS011;7698;42.478;23.756;2023-02-26T01:48:30;20.58;;;14.43;;
15194;SDS011;7698;42.478;23.756;2023-02-26T01:51:00;18.05;;;14.93;;
15194;SDS011;7698;42.478;23.756;2023-02-26T01:53:26;17.85;;;14.25;;
15194;SDS011;7698;42.478;23.756;2023-02-26T01:55:55;16.98;;;12.90;;
15194;SDS011;7698;42.478;23.756;2023-02-26T01:58:22;15.98;;;11.70;;
15194;SDS011;7698;42.478;23.756;2023-02-26T02:00:50;16.48;;;11.43;;
15194;SDS011;7698;42.478;23.756;2023-02-26T02:03:18;15.80;;;11.52;;
15194;SDS011;7698;42.478;23.756;2023-02-26T02:05:46;14.43;;;10.98;;
15194;SDS011;7698;42.478;23.756;2023-02-26T02:08:13;12.00;;;9.40;;
15194;SDS011;7698;42.478;23.756;2023-02-26T02:10:40;14.30;;;12.02;;
15194;SDS011;7698;42.478;23.756;2023-02-26T02:13:09;14.90;;;11.18;;
15194;SDS011;7698;42.478;23.756;2023-02-26T02:15:39;11.27;;;9.68;;
15194;SDS011;7698;42.478;23.756;2023-02-26T02:18:09;13.43;;;10.77;;
15194;SDS011;7698;42.478;23.756;2023-02-26T02:23:20;13.63;;;11.00;;
15194;SDS011;7698;42.478;23.756;2023-02-26T02:26:05;13.27;;;11.50;;
15194;SDS011;7698;42.478;23.756;2023-02-26T02:28:37;13.25;;;11.85;;
15194;SDS011;7698;42.478;23.756;2023-02-26T02:31:07;16.55;;;12.35;;
15194;SDS011;7698;42.478;23.756;2023-02-26T02:33:35;17.65;;;14.18;;
15194;SDS011;7698;42.478;23.756;2023-02-26T02:36:04;15.18;;;13.68;;
15194;SDS011;7698;42.478;23.756;2023-02-26T02:38:33;16.55;;;14.88;;
15194;SDS011;7698;42.478;23.756;2023-02-26T02:41:04;17.50;;;15.15;;
15194;SDS011;7698;42.478;23.756;2023-02-26T02:43:31;12.48;;;11.30;;
15194;SDS011;7698;42.478;23.756;2023-02-26T02:45:59;17.08;;;15.35;;
15194;SDS011;7698;42.478;23.756;2023-02-26T02:48:31;14.18;;;12.65;;
15194;SDS011;7698;42.478;23.756;2023-02-26T02:50:59;20.20;;;17.88;;
15194;SDS011;7698;42.478;23.756;2023-02-26T02:53:28;15.02;;;12.80;;
15194;SDS011;7698;42.478;23.756;2023-02-26T02:55:56;14.45;;;12.27;;
15194;SDS011;7698;42.478;23.756;2023-02-26T02:58:25;15.32;;;12.70;;
15194;SDS011;7698;42.478;23.756;2023-02-26T03:00:53;12.50;;;11.40;;
15194;SDS011;7698;42.478;23.756;2023-02-26T03:03:23;13.55;;;11.98;;
15194;SDS011;7698;42.478;23.756;2023-02-26T03:05:52;16.08;;;13.80;;
15194;SDS011;7698;42.478;23.756;2023-02-26T03:08:20;15.82;;;13.38;;
15194;SDS011;7698;42.478;23.756;2023-02-26T03:10:47;25.38;;;15.73;;
15194;SDS011;7698;42.478;23.756;2023-02-26T03:13:14;13.40;;;12.00;;
15194;SDS011;7698;42.478;23.756;2023-02-26T03:15:42;11.23;;;8.38;;
15194;SDS011;7698;42.478;23.756;2023-02-26T03:18:13;12.93;;;11.20;;
15194;SDS011;7698;42.478;23.756;2023-02-26T03:20:45;18.27;;;14.93;;
15194;SDS011;7698;42.478;23.756;2023-02-26T03:23:17;16.02;;;11.95;;
15194;SDS011;7698;42.478;23.756;2023-02-26T03:25:46;13.30;;;10.82;;
15194;SDS011;7698;42.478;23.756;2023-02-26T03:28:15;12.80;;;8.50;;
15194;SDS011;7698;42.478;23.756;2023-02-26T03:30:45;12.00;;;8.77;;
15194;SDS011;7698;42.478;23.756;2023-02-26T03:33:13;8.15;;;7.35;;
15194;SDS011;7698;42.478;23.756;2023-02-26T03:35:44;10.43;;;7.85;;
15194;SDS011;7698;42.478;23.756;2023-02-26T03:38:13;17.02;;;10.02;;
15194;SDS011;7698;42.478;23.756;2023-02-26T03:40:45;15.13;;;9.48;;
15194;SDS011;7698;42.478;23.756;2023-02-26T03:43:14;11.93;;;8.82;;
15194;SDS011;7698;42.478;23.756;2023-02-26T03:45:42;11.15;;;8.93;;
15194;SDS011;7698;42.478;23.756;2023-02-26T03:48:11;11.95;;;7.70;;
15194;SDS011;7698;42.478;23.756;2023-02-26T03:50:39;14.52;;;7.78;;
15194;SDS011;7698;42.478;23.756;2023-02-26T03:53:09;7.25;;;6.32;;
15194;SDS011;7698;42.478;23.756;2023-02-26T03:55:37;11.73;;;8.13;;
15194;SDS011;7698;42.478;23.756;2023-02-26T03:58:06;11.07;;;7.90;;
15194;SDS011;7698;42.478;23.756;2023-02-26T04:00:32;11.10;;;8.18;;
15194;SDS011;7698;42.478;23.756;2023-02-26T04:03:02;12.05;;;9.23;;
15194;SDS011;7698;42.478;23.756;2023-02-26T04:05:31;9.55;;;8.38;;
15194;SDS011;7698;42.478;23.756;2023-02-26T04:07:58;12.48;;;7.38;;
15194;SDS011;7698;42.478;23.756;2023-02-26T04:10:26;14.88;;;9.30;;
15194;SDS011;7698;42.478;23.756;2023-02-26T04:12:57;8.85;;;6.95;;
15194;SDS011;7698;42.478;23.756;2023-02-26T04:15:25;13.20;;;8.02;;
15194;SDS011;7698;42.478;23.756;2023-02-26T04:17:52;9.38;;;7.22;;
15194;SDS011;7698;42.478;23.756;2023-02-26T04:20:18;14.32;;;9.77;;
15194;SDS011;7698;42.478;23.756;2023-02-26T04:22:45;11.35;;;8.43;;
15194;SDS011;7698;42.478;23.756;2023-02-26T04:25:11;11.45;;;7.63;;
15194;SDS011;7698;42.478;23.756;2023-02-26T04:27:38;8.35;;;7.13;;
15194;SDS011;7698;42.478;23.756;2023-02-26T04:30:05;12.98;;;7.85;;
15194;SDS011;7698;42.478;23.756;2023-02-26T04:32:33;13.60;;;7.25;;
15194;SDS011;7698;42.478;23.756;2023-02-26T04:35:00;14.70;;;7.43;;
15194;SDS011;7698;42.478;23.756;2023-02-26T04:37:26;11.73;;;7.32;;
15194;SDS011;7698;42.478;23.756;2023-02-26T04:39:53;8.00;;;6.97;;
15194;SDS011;7698;42.478;23.756;2023-02-26T04:42:19;12.10;;;7.03;;
15194;SDS011;7698;42.478;23.756;2023-02-26T04:44:46;11.50;;;7.32;;
15194;SDS011;7698;42.478;23.756;2023-02-26T04:47:13;10.20;;;7.55;;
15194;SDS011;7698;42.478;23.756;2023-02-26T04:49:41;8.77;;;6.32;;
15194;SDS011;7698;42.478;23.756;2023-02-26T04:52:07;7.50;;;6.10;;
15194;SDS011;7698;42.478;23.756;2023-02-26T04:54:34;10.32;;;8.45;;
15194;SDS011;7698;42.478;23.756;2023-02-26T04:57:00;13.77;;;8.95;;
15194;SDS011;7698;42.478;23.756;2023-02-26T04:59:27;7.72;;;6.93;;
15194;SDS011;7698;42.478;23.756;2023-02-26T05:01:53;8.93;;;6.32;;
15194;SDS011;7698;42.478;23.756;2023-02-26T05:04:20;8.20;;;5.97;;
15194;SDS011;7698;42.478;23.756;2023-02-26T05:06:47;10.75;;;7.55;;
15194;SDS011;7698;42.478;23.756;2023-02-26T05:09:14;10.88;;;8.98;;
15194;SDS011;7698;42.478;23.756;2023-02-26T05:11:41;10.98;;;7.25;;
15194;SDS011;7698;42.478;23.756;2023-02-26T05:14:07;10.15;;;7.32;;
15194;SDS011;7698;42.478;23.756;2023-02-26T05:16:34;7.28;;;6.03;;
15194;SDS011;7698;42.478;23.756;2023-02-26T05:19:00;9.13;;;7.13;;
15194;SDS011;7698;42.478;23.756;2023-02-26T05:21:27;11.80;;;8.57;;
15194;SDS011;7698;42.478;23.756;2023-02-26T05:23:55;10.23;;;7.63;;
15194;SDS011;7698;42.478;23.756;2023-02-26T05:26:21;7.85;;;6.28;;
15194;SDS011;7698;42.478;23.756;2023-02-26T05:28:48;10.00;;;7.85;;
15194;SDS011;7698;42.478;23.756;2023-02-26T05:31:14;12.75;;;8.10;;
15194;SDS011;7698;42.478;23.756;2023-02-26T05:33:41;9.20;;;7.03;;
15194;SDS011;7698;42.478;23.756;2023-02-26T05:36:08;15.27;;;10.00;;
15194;SDS011;7698;42.478;23.756;2023-02-26T05:38:34;10.32;;;7.95;;
15194;SDS011;7698;42.478;23.756;2023-02-26T05:41:02;10.52;;;8.27;;
15194;SDS011;7698;42.478;23.756;2023-02-26T05:43:29;8.75;;;6.95;;
15194;SDS011;7698;42.478;23.756;2023-02-26T05:45:57;10.68;;;6.95;;
15194;SDS011;7698;42.478;23.756;2023-02-26T05:48:24;9.50;;;7.10;;
15194;SDS011;7698;42.478;23.756;2023-02-26T05:50:50;7.45;;;5.35;;
15194;SDS011;7698;42.478;23.756;2023-02-26T05:53:17;15.75;;;5.95;;
15194;SDS011;7698;42.478;23.756;2023-02-26T05:55:44;6.47;;;4.60;;
15194;SDS011;7698;42.478;23.756;2023-02-26T05:58:11;11.32;;;5.70;;
15194;SDS011;7698;42.478;23.756;2023-02-26T06:00:38;8.02;;;5.18;;
15194;SDS011;7698;42.478;23.756;2023-02-26T06:03:05;8.63;;;5.13;;
15194;SDS011;7698;42.478;23.756;2023-02-26T06:05:31;23.25;;;13.88;;
15194;SDS011;7698;42.478;23.756;2023-02-26T06:07:58;15.02;;;8.63;;
15194;SDS011;7698;42.478;23.756;2023-02-26T06:10:24;10.48;;;6.72;;
15194;SDS011;7698;42.478;23.756;2023-02-26T06:12:51;14.95;;;9.65;;
15194;SDS011;7698;42.478;23.756;2023-02-26T06:15:19;14.13;;;11.40;;
15194;SDS011;7698;42.478;23.756;2023-02-26T06:17:45;18.15;;;12.77;;
15194;SDS011;7698;42.478;23.756;2023-02-26T06:20:12;17.20;;;11.32;;
15194;SDS011;7698;42.478;23.756;2023-02-26T06:22:38;10.18;;;8.38;;
15194;SDS011;7698;42.478;23.756;2023-02-26T06:25:05;11.02;;;6.22;;
15194;SDS011;7698;42.478;23.756;2023-02-26T06:27:32;9.63;;;5.53;;
15194;SDS011;7698;42.478;23.756;2023-02-26T06:29:59;8.23;;;5.45;;
15194;SDS011;7698;42.478;23.756;2023-02-26T06:32:26;8.18;;;5.30;;
15194;SDS011;7698;42.478;23.756;2023-02-26T06:34:53;9.38;;;5.63;;
15194;SDS011;7698;42.478;23.756;2023-02-26T06:37:20;7.10;;;5.25;;
15194;SDS011;7698;42.478;23.756;2023-02-26T06:39:46;6.38;;;4.63;;
15194;SDS011;7698;42.478;23.756;2023-02-26T06:42:13;9.70;;;4.78;;
15194;SDS011;7698;42.478;23.756;2023-02-26T06:44:39;9.00;;;5.75;;
15194;SDS011;7698;42.478;23.756;2023-02-26T06:47:06;10.05;;;5.50;;
15194;SDS011;7698;42.478;23.756;2023-02-26T06:49:34;10.07;;;6.10;;
15194;SDS011;7698;42.478;23.756;2023-02-26T06:52:01;12.43;;;6.65;;
15194;SDS011;7698;42.478;23.756;2023-02-26T06:54:28;9.15;;;5.95;;
15194;SDS011;7698;42.478;23.756;2023-02-26T06:56:54;8.85;;;6.80;;
15194;SDS011;7698;42.478;23.756;2023-02-26T06:59:21;10.48;;;6.47;;
15194;SDS011;7698;42.478;23.756;2023-02-26T07:01:48;8.93;;;6.00;;
15194;SDS011;7698;42.478;23.756;2023-02-26T07:04:15;9.52;;;6.30;;
15194;SDS011;7698;42.478;23.756;2023-02-26T07:06:43;11.93;;;6.85;;
15194;SDS011;7698;42.478;23.756;2023-02-26T07:09:09;16.75;;;9.52;;
15194;SDS011;7698;42.478;23.756;2023-02-26T07:11:36;18.33;;;10.40;;
15194;SDS011;7698;42.478;23.756;2023-02-26T07:14:02;10.73;;;6.95;;
15194;SDS011;7698;42.478;23.756;2023-02-26T07:16:29;7.38;;;5.22;;
15194;SDS011;7698;42.478;23.756;2023-02-26T07:18:55;9.23;;;4.72;;
15194;SDS011;7698;42.478;23.756;2023-02-26T07:21:22;6.45;;;4.50;;
15194;SDS011;7698;42.478;23.756;2023-02-26T07:23:50;8.85;;;4.80;;
15194;SDS011;7698;42.478;23.756;2023-02-26T07:26:16;8.80;;;5.65;;
15194;SDS011;7698;42.478;23.756;2023-02-26T07:28:43;6.82;;;4.45;;
15194;SDS011;7698;42.478;23.756;2023-02-26T07:31:10;8.60;;;3.78;;
15194;SDS011;7698;42.478;23.756;2023-02-26T07:33:36;9.68;;;4.07;;
15194;SDS011;7698;42.478;23.756;2023-02-26T07:36:04;8.82;;;4.10;;
15194;SDS011;7698;42.478;23.756;2023-02-26T07:38:30;8.07;;;3.08;;
15194;SDS011;7698;42.478;23.756;2023-02-26T07:40:58;6.95;;;3.28;;
15194;SDS011;7698;42.478;23.756;2023-02-26T07:43:25;6.75;;;3.20;;
15194;SDS011;7698;42.478;23.756;2023-02-26T07:45:52;6.10;;;2.95;;
15194;SDS011;7698;42.478;23.756;2023-02-26T07:48:18;8.40;;;3.40;;
15194;SDS011;7698;42.478;23.756;2023-02-26T07:50:45;11.57;;;3.72;;
15194;SDS011;7698;42.478;23.756;2023-02-26T07:53:12;9.93;;;3.83;;
15194;SDS011;7698;42.478;23.756;2023-02-26T07:55:39;8.65;;;3.70;;
15194;SDS011;7698;42.478;23.756;2023-02-26T07:58:07;10.43;;;3.42;;
15194;SDS011;7698;42.478;23.756;2023-02-26T08:00:34;9.63;;;3.80;;
15194;SDS011;7698;42.478;23.756;2023-02-26T08:03:00;8.30;;;3.63;;
15194;SDS011;7698;42.478;23.756;2023-02-26T08:05:27;9.25;;;4.30;;
15194;SDS011;7698;42.478;23.756;2023-02-26T08:07:53;10.48;;;4.22;;
15194;SDS011;7698;42.478;23.756;2023-02-26T08:10:20;6.75;;;3.28;;
15194;SDS011;7698;42.478;23.756;2023-02-26T08:12:47;12.02;;;3.97;;
15194;SDS011;7698;42.478;23.756;2023-02-26T08:15:15;9.75;;;3.83;;
15194;SDS011;7698;42.478;23.756;2023-02-26T08:17:41;8.82;;;3.88;;
15194;SDS011;7698;42.478;23.756;2023-02-26T08:20:08;8.05;;;3.08;;
15194;SDS011;7698;42.478;23.756;2023-02-26T08:22:36;8.52;;;3.75;;
15194;SDS011;7698;42.478;23.756;2023-02-26T08:25:02;10.32;;;3.67;;
15194;SDS011;7698;42.478;23.756;2023-02-26T08:27:29;8.00;;;3.22;;
15194;SDS011;7698;42.478;23.756;2023-02-26T08:29:56;8.00;;;3.30;;
15194;SDS011;7698;42.478;23.756;2023-02-26T08:32:24;8.75;;;3.20;;
15194;SDS011;7698;42.478;23.756;2023-02-26T08:34:52;8.23;;;3.78;;
15194;SDS011;7698;42.478;23.756;2023-02-26T08:37:19;9.65;;;4.03;;
15194;SDS011;7698;42.478;23.756;2023-02-26T08:39:48;12.18;;;4.22;;
15194;SDS011;7698;42.478;23.756;2023-02-26T08:42:15;13.05;;;3.38;;
15194;SDS011;7698;42.478;23.756;2023-02-26T08:44:41;9.25;;;3.95;;
15194;SDS011;7698;42.478;23.756;2023-02-26T08:47:08;9.73;;;4.15;;
15194;SDS011;7698;42.478;23.756;2023-02-26T08:49:36;9.15;;;3.40;;
15194;SDS011;7698;42.478;23.756;2023-02-26T08:52:03;8.77;;;3.53;;
15194;SDS011;7698;42.478;23.756;2023-02-26T08:54:29;12.75;;;4.25;;
15194;SDS011;7698;42.478;23.756;2023-02-26T08:56:56;9.23;;;3.58;;
15194;SDS011;7698;42.478;23.756;2023-02-26T08:59:23;12.15;;;3.67;;
15194;SDS011;7698;42.478;23.756;2023-02-26T09:01:50;9.68;;;3.55;;
15194;SDS011;7698;42.478;23.756;2023-02-26T09:04:16;7.78;;;3.85;;
15194;SDS011;7698;42.478;23.756;2023-02-26T09:06:44;8.90;;;3.90;;
15194;SDS011;7698;42.478;23.756;2023-02-26T09:09:11;9.60;;;4.38;;
15194;SDS011;7698;42.478;23.756;2023-02-26T09:11:38;10.38;;;3.65;;
15194;SDS011;7698;42.478;23.756;2023-02-26T09:14:05;7.88;;;3.55;;
15194;SDS011;7698;42.478;23.756;2023-02-26T09:16:31;11.05;;;3.78;;
15194;SDS011;7698;42.478;23.756;2023-02-26T09:19:00;10.02;;;3.83;;
15194;SDS011;7698;42.478;23.756;2023-02-26T09:21:27;10.20;;;4.13;;
15194;SDS011;7698;42.478;23.756;2023-02-26T09:23:55;8.52;;;3.38;;
15194;SDS011;7698;42.478;23.756;2023-02-26T09:26:22;10.82;;;4.05;;
15194;SDS011;7698;42.478;23.756;2023-02-26T09:28:48;9.05;;;3.75;;
15194;SDS011;7698;42.478;23.756;2023-02-26T09:31:15;9.73;;;3.63;;
15194;SDS011;7698;42.478;23.756;2023-02-26T09:33:42;16.95;;;4.03;;
15194;SDS011;7698;42.478;23.756;2023-02-26T09:36:08;11.95;;;3.83;;
15194;SDS011;7698;42.478;23.756;2023-02-26T09:38:35;9.20;;;3.28;;
15194;SDS011;7698;42.478;23.756;2023-02-26T09:41:04;7.40;;;2.92;;
15194;SDS011;7698;42.478;23.756;2023-02-26T09:43:52;14.57;;;3.80;;
15194;SDS011;7698;42.478;23.756;2023-02-26T09:46:24;12.13;;;3.97;;
15194;SDS011;7698;42.478;23.756;2023-02-26T09:48:56;10.88;;;3.83;;
15194;SDS011;7698;42.478;23.756;2023-02-26T09:51:25;10.45;;;4.13;;
15194;SDS011;7698;42.478;23.756;2023-02-26T09:53:52;10.52;;;3.90;;
15194;SDS011;7698;42.478;23.756;2023-02-26T09:56:22;10.82;;;4.47;;
15194;SDS011;7698;42.478;23.756;2023-02-26T09:58:49;12.50;;;4.32;;
15194;SDS011;7698;42.478;23.756;2023-02-26T10:01:18;13.43;;;3.78;;
15194;SDS011;7698;42.478;23.756;2023-02-26T10:03:52;11.98;;;4.53;;
15194;SDS011;7698;42.478;23.756;2023-02-26T10:06:21;14.05;;;4.10;;
15194;SDS011;7698;42.478;23.756;2023-02-26T10:08:55;13.52;;;4.60;;
15194;SDS011;7698;42.478;23.756;2023-02-26T10:11:28;7.13;;;2.97;;
15194;SDS011;7698;42.478;23.756;2023-02-26T10:13:57;12.65;;;4.40;;
15194;SDS011;7698;42.478;23.756;2023-02-26T10:16:25;9.65;;;3.83;;
15194;SDS011;7698;42.478;23.756;2023-02-26T10:18:53;8.45;;;4.05;;
15194;SDS011;7698;42.478;23.756;2023-02-26T10:21:22;10.18;;;3.90;;
15194;SDS011;7698;42.478;23.756;2023-02-26T10:23:52;10.48;;;4.53;;
15194;SDS011;7698;42.478;23.756;2023-02-26T10:26:21;11.18;;;5.00;;
15194;SDS011;7698;42.478;23.756;2023-02-26T10:28:55;12.43;;;4.60;;
15194;SDS011;7698;42.478;23.756;2023-02-26T10:31:26;10.60;;;4.15;;
15194;SDS011;7698;42.478;23.756;2023-02-26T10:33:57;12.55;;;4.15;;
15194;SDS011;7698;42.478;23.756;2023-02-26T10:36:27;10.27;;;3.92;;
15194;SDS011;7698;42.478;23.756;2023-02-26T10:38:56;9.70;;;4.07;;
15194;SDS011;7698;42.478;23.756;2023-02-26T10:41:27;14.30;;;4.35;;
15194;SDS011;7698;42.478;23.756;2023-02-26T10:43:57;14.52;;;5.03;;
15194;SDS011;7698;42.478;23.756;2023-02-26T10:46:27;11.82;;;4.18;;
15194;SDS011;7698;42.478;23.756;2023-02-26T10:48:59;11.95;;;3.33;;
15194;SDS011;7698;42.478;23.756;2023-02-26T10:51:31;16.15;;;4.47;;
15194;SDS011;7698;42.478;23.756;2023-02-26T10:53:58;17.17;;;5.47;;
15194;SDS011;7698;42.478;23.756;2023-02-26T10:56:26;11.35;;;4.18;;
15194;SDS011;7698;42.478;23.756;2023-02-26T10:58:54;13.93;;;4.45;;
15194;SDS011;7698;42.478;23.756;2023-02-26T11:01:23;18.17;;;5.30;;
15194;SDS011;7698;42.478;23.756;2023-02-26T11:03:52;14.73;;;4.25;;
15194;SDS011;7698;42.478;23.756;2023-02-26T11:06:20;13.02;;;4.20;;
15194;SDS011;7698;42.478;23.756;2023-02-26T11:08:49;8.82;;;3.65;;
15194;SDS011;7698;42.478;23.756;2023-02-26T11:13:58;9.45;;;3.78;;
15194;SDS011;7698;42.478;23.756;2023-02-26T11:16:27;15.00;;;4.65;;
15194;SDS011;7698;42.478;23.756;2023-02-26T11:18:54;12.48;;;4.15;;
15194;SDS011;7698;42.478;23.756;2023-02-26T11:21:21;13.30;;;3.97;;
15194;SDS011;7698;42.478;23.756;2023-02-26T11:23:56;9.75;;;3.40;;
15194;SDS011;7698;42.478;23.756;2023-02-26T11:26:25;12.60;;;4.22;;
15194;SDS011;7698;42.478;23.756;2023-02-26T11:28:53;11.73;;;4.25;;
15194;SDS011;7698;42.478;23.756;2023-02-26T11:31:21;10.80;;;3.65;;
15194;SDS011;7698;42.478;23.756;2023-02-26T11:33:50;8.07;;;3.38;;
15194;SDS011;7698;42.478;23.756;2023-02-26T11:36:20;12.57;;;3.67;;
15194;SDS011;7698;42.478;23.756;2023-02-26T11:38:51;11.88;;;3.40;;
15194;SDS011;7698;42.478;23.756;2023-02-26T11:41:18;13.05;;;4.03;;
15194;SDS011;7698;42.478;23.756;2023-02-26T11:43:46;14.20;;;4.82;;
15194;SDS011;7698;42.478;23.756;2023-02-26T11:46:13;9.23;;;3.97;;
15194;SDS011;7698;42.478;23.756;2023-02-26T11:48:41;13.10;;;4.28;;
15194;SDS011;7698;42.478;23.756;2023-02-26T11:51:12;13.05;;;4.30;;
15194;SDS011;7698;42.478;23.756;2023-02-26T11:53:41;12.32;;;3.72;;
15194;SDS011;7698;42.478;23.756;2023-02-26T11:56:09;11.25;;;3.63;;
15194;SDS011;7698;42.478;23.756;2023-02-26T11:58:37;9.50;;;3.40;;
15194;SDS011;7698;42.478;23.756;2023-02-26T12:01:05;10.63;;;4.13;;
15194;SDS011;7698;42.478;23.756;2023-02-26T12:03:33;6.55;;;3.25;;
15194;SDS011;7698;42.478;23.756;2023-02-26T12:06:00;12.02;;;3.47;;
15194;SDS011;7698;42.478;23.756;2023-02-26T12:08:30;9.90;;;3.63;;
15194;SDS011;7698;42.478;23.756;2023-02-26T12:11:13;10.18;;;4.10;;
15194;SDS011;7698;42.478;23.756;2023-02-26T12:13:43;11.57;;;4.10;;
15194;SDS011;7698;42.478;23.756;2023-02-26T12:16:14;10.25;;;4.18;;
15194;SDS011;7698;42.478;23.756;2023-02-26T12:18:51;14.43;;;4.28;;
15194;SDS011;7698;42.478;23.756;2023-02-26T12:21:23;9.30;;;3.55;;
15194;SDS011;7698;42.478;23.756;2023-02-26T12:24:01;11.23;;;4.32;;
15194;SDS011;7698;42.478;23.756;2023-02-26T12:26:31;11.18;;;4.28;;
15194;SDS011;7698;42.478;23.756;2023-02-26T12:31:57;14.25;;;3.25;;
15194;SDS011;7698;42.478;23.756;2023-02-26T12:34:30;10.68;;;4.18;;
15194;SDS011;7698;42.478;23.756;2023-02-26T12:37:10;13.45;;;3.72;;
15194;SDS011;7698;42.478;23.756;2023-02-26T12:39:45;11.02;;;4.35;;
15194;SDS011;7698;42.478;23.756;2023-02-26T12:42:17;13.65;;;4.28;;
15194;SDS011;7698;42.478;23.756;2023-02-26T12:47:34;12.77;;;3.83;;
15194;SDS011;7698;42.478;23.756;2023-02-26T12:52:59;12.57;;;4.38;;
15194;SDS011;7698;42.478;23.756;2023-02-26T12:55:32;10.73;;;4.45;;
15194;SDS011;7698;42.478;23.756;2023-02-26T12:58:13;12.82;;;3.75;;
15194;SDS011;7698;42.478;23.756;2023-02-26T13:00:45;12.30;;;4.10;;
15194;SDS011;7698;42.478;23.756;2023-02-26T13:08:48;12.82;;;3.88;;
15194;SDS011;7698;42.478;23.756;2023-02-26T13:11:20;16.10;;;5.03;;
15194;SDS011;7698;42.478;23.756;2023-02-26T13:13:52;14.43;;;4.18;;
15194;SDS011;7698;42.478;23.756;2023-02-26T13:16:23;8.20;;;3.95;;
15194;SDS011;7698;42.478;23.756;2023-02-26T13:18:52;12.02;;;4.03;;
15194;SDS011;7698;42.478;23.756;2023-02-26T13:21:24;14.98;;;4.65;;
15194;SDS011;7698;42.478;23.756;2023-02-26T13:23:51;12.65;;;4.22;;
15194;SDS011;7698;42.478;23.756;2023-02-26T13:26:20;11.38;;;4.32;;
15194;SDS011;7698;42.478;23.756;2023-02-26T13:28:49;16.13;;;4.53;;
15194;SDS011;7698;42.478;23.756;2023-02-26T13:31:19;12.05;;;4.40;;
15194;SDS011;7698;42.478;23.756;2023-02-26T13:33:47;10.07;;;4.32;;
15194;SDS011;7698;42.478;23.756;2023-02-26T13:36:15;14.63;;;3.95;;
15194;SDS011;7698;42.478;23.756;2023-02-26T13:38:45;12.32;;;4.15;;
15194;SDS011;7698;42.478;23.756;2023-02-26T13:41:15;14.93;;;4.80;;
15194;SDS011;7698;42.478;23.756;2023-02-26T13:43:59;15.75;;;4.78;;
15194;SDS011;7698;42.478;23.756;2023-02-26T13:46:33;19.85;;;5.13;;
15194;SDS011;7698;42.478;23.756;2023-02-26T13:49:05;19.40;;;5.65;;
15194;SDS011;7698;42.478;23.756;2023-02-26T13:51:35;11.05;;;4.35;;
15194;SDS011;7698;42.478;23.756;2023-02-26T13:54:02;13.25;;;4.82;;
15194;SDS011;7698;42.478;23.756;2023-02-26T13:56:51;15.23;;;5.30;;
15194;SDS011;7698;42.478;23.756;2023-02-26T14:02:33;14.98;;;3.63;;
15194;SDS011;7698;42.478;23.756;2023-02-26T14:05:00;12.93;;;4.35;;
15194;SDS011;7698;42.478;23.756;2023-02-26T14:10:14;10.98;;;4.70;;
15194;SDS011;7698;42.478;23.756;2023-02-26T14:12:41;13.60;;;4.70;;
15194;SDS011;7698;42.478;23.756;2023-02-26T14:15:18;13.07;;;4.50;;
15194;SDS011;7698;42.478;23.756;2023-02-26T14:17:48;9.55;;;4.15;;
15194;SDS011;7698;42.478;23.756;2023-02-26T14:20:16;12.07;;;4.20;;
15194;SDS011;7698;42.478;23.756;2023-02-26T14:22:46;10.45;;;3.83;;
15194;SDS011;7698;42.478;23.756;2023-02-26T14:25:15;12.80;;;4.68;;
15194;SDS011;7698;42.478;23.756;2023-02-26T14:27:43;14.38;;;4.43;;
15194;SDS011;7698;42.478;23.756;2023-02-26T14:30:15;13.40;;;4.47;;
15194;SDS011;7698;42.478;23.756;2023-02-26T14:32:46;9.50;;;4.03;;
15194;SDS011;7698;42.478;23.756;2023-02-26T14:35:15;11.27;;;3.60;;
15194;SDS011;7698;42.478;23.756;2023-02-26T14:37:44;11.75;;;4.28;;
15194;SDS011;7698;42.478;23.756;2023-02-26T14:40:15;11.55;;;4.68;;
15194;SDS011;7698;42.478;23.756;2023-02-26T14:42:42;10.45;;;4.07;;
15194;SDS011;7698;42.478;23.756;2023-02-26T14:45:20;11.38;;;4.00;;
15194;SDS011;7698;42.478;23.756;2023-02-26T14:47:48;11.82;;;4.13;;
15194;SDS011;7698;42.478;23.756;2023-02-26T14:50:17;11.35;;;4.28;;
15194;SDS011;7698;42.478;23.756;2023-02-26T14:52:51;13.55;;;3.83;;
15194;SDS011;7698;42.478;23.756;2023-02-26T14:55:31;12.20;;;3.22;;
15194;SDS011;7698;42.478;23.756;2023-02-26T14:58:04;10.45;;;4.43;;
15194;SDS011;7698;42.478;23.756;2023-02-26T15:00:36;9.15;;;4.45;;
15194;SDS011;7698;42.478;23.756;2023-02-26T15:03:13;12.25;;;4.53;;
15194;SDS011;7698;42.478;23.756;2023-02-26T15:05:49;12.57;;;3.97;;
15194;SDS011;7698;42.478;23.756;2023-02-26T15:08:24;9.88;;;3.83;;
15194;SDS011;7698;42.478;23.756;2023-02-26T15:11:02;9.85;;;4.50;;